Medallion — V7KM6 — position and weather

sailwx.info

Track history (hours):
 
Tides and Currents Weather Stations Pressure Air Temp Water Temp Dewpoint Dewpoint Depression Visibility Wind Speed Wind Dir Waves Ship Positions

Medallion

Last reported at 2015-Jul-04 23:23 UTC. Time now 2015-Jul-05 04:30 UTC.
Position N 40°54' W 073°30'.

Length 20 m; draft 7 m.

Type: Pleasure craft. MMSI: 538070246.

Date/timePositionNaut miles runAvg speedWind from/ knotsBaromVisibWave heightAir tempDewpointWater temp
2015-Jul-04 23:23N 40°54' W 073°30'1 0.2
2015-Jul-04 20:04N 40°54' W 073°31'0 0.0
2015-Jul-04 19:32N 40°54' W 073°31'0 0.0
2015-Jul-04 18:07N 40°54' W 073°31'1 1.2
2015-Jul-04 17:33N 40°54' W 073°30'10 0.9
2015-Jul-04 06:28N 40°50' W 073°43'0 0.0
2015-Jul-04 05:31N 40°50' W 073°43'0 0.0
2015-Jul-04 04:32N 40°50' W 073°43'0 0.0
2015-Jul-04 03:30N 40°50' W 073°43'0 0.0
2015-Jul-04 02:27N 40°50' W 073°43'0 0.0
2015-Jul-03 17:19N 40°50' W 073°43'0 0.0
2015-Jul-03 09:12N 40°50' W 073°43'0 0.0
2015-Jul-03 08:33N 40°50' W 073°43'0 0.0
2015-Jul-03 07:31N 40°50' W 073°43'0 0.0
2015-Jul-03 06:32N 40°50' W 073°43'0 0.0
2015-Jul-03 05:29N 40°50' W 073°43'0 0.0
2015-Jul-03 02:14N 40°50' W 073°43'0 0.0
2015-Jul-03 01:29N 40°50' W 073°43'0 0.0
2015-Jul-03 00:33N 40°50' W 073°43'0 0.0
2015-Jul-02 23:33N 40°50' W 073°43'0 0.0
2015-Jul-02 22:31N 40°50' W 073°43'0 0.0
2015-Jul-02 19:18N 40°50' W 073°43'0 0.0
2015-Jul-02 16:29N 40°50' W 073°43'0 0.0
2015-Jul-02 15:21N 40°50' W 073°43'0 0.0
2015-Jul-01 06:13N 40°50' W 073°43'0 0.0
2015-Jul-01 05:05N 40°50' W 073°43'0 0.0
2015-Jul-01 04:23N 40°50' W 073°43'0 0.0
2015-Jul-01 03:30N 40°50' W 073°43'0 0.0
2015-Jul-01 02:28N 40°50' W 073°43'0 0.0
2015-Jul-01 01:31N 40°50' W 073°43'0 0.0
2015-Jul-01 00:29N 40°50' W 073°43'0 0.0
2015-Jun-30 23:33N 40°50' W 073°43'0 0.0
2015-Jun-30 21:04N 40°50' W 073°43'0 0.0
2015-Jun-30 19:32N 40°50' W 073°43'0 0.0
2015-Jun-30 18:31N 40°50' W 073°43'0 0.0
2015-Jun-30 17:33N 40°50' W 073°43'0 0.0
2015-Jun-30 14:26N 40°50' W 073°43'0 0.0
2015-Jun-30 11:31N 40°50' W 073°43'0 0.0
2015-Jun-28 17:18N 40°50' W 073°43'0 0.0
2015-Jun-28 01:22N 40°50' W 073°43'0 0.0
2015-Jun-27 14:15N 40°50' W 073°43'0 0.0
2015-Jun-27 13:33N 40°50' W 073°43'0 0.0
2015-Jun-27 12:28N 40°50' W 073°43'0 0.0
2015-Jun-27 11:34N 40°50' W 073°43'0 0.0
2015-Jun-27 10:33N 40°50' W 073°43'0 0.0
2015-Jun-27 09:33N 40°50' W 073°43'0 0.0
2015-Jun-27 08:33N 40°50' W 073°43'2 1.8
2015-Jun-27 07:33N 40°50' W 073°46'2 0.1
2015-Jun-26 11:07N 40°50' W 073°43'0 0.0
2015-Jun-26 10:31N 40°50' W 073°43'0 0.0
2015-Jun-26 09:29N 40°50' W 073°43'0 0.0
2015-Jun-26 08:33N 40°50' W 073°43'0 0.0
2015-Jun-25 09:30N 40°50' W 073°43'0 0.0
2015-Jun-25 00:27N 40°50' W 073°43'  
Track history (hours):
 
Tides and Currents Weather Stations Pressure Air Temp Water Temp Dewpoint Dewpoint Depression Visibility Wind Speed Wind Dir Waves Ship Positions

Medallion

Last reported at 2015-Jul-04 23:23 UTC. Time now 2015-Jul-05 04:30 UTC.
Position N 40°54' W 073°30'.

Length 20 m; draft 7 m.

Type: Pleasure craft. MMSI: 538070246.

Date/timePositionNaut miles runAvg speedWind from/ knotsBaromVisibWave heightAir tempDewpointWater temp
2015-Jul-04 23:23N 40°54' W 073°30'1 0.2
2015-Jul-04 20:04N 40°54' W 073°31'0 0.0
2015-Jul-04 19:32N 40°54' W 073°31'0 0.0
2015-Jul-04 18:07N 40°54' W 073°31'1 1.2
2015-Jul-04 17:33N 40°54' W 073°30'10 0.9
2015-Jul-04 06:28N 40°50' W 073°43'0 0.0
2015-Jul-04 05:31N 40°50' W 073°43'0 0.0
2015-Jul-04 04:32N 40°50' W 073°43'0 0.0
2015-Jul-04 03:30N 40°50' W 073°43'0 0.0
2015-Jul-04 02:27N 40°50' W 073°43'0 0.0
2015-Jul-03 17:19N 40°50' W 073°43'0 0.0
2015-Jul-03 09:12N 40°50' W 073°43'0 0.0
2015-Jul-03 08:33N 40°50' W 073°43'0 0.0
2015-Jul-03 07:31N 40°50' W 073°43'0 0.0
2015-Jul-03 06:32N 40°50' W 073°43'0 0.0
2015-Jul-03 05:29N 40°50' W 073°43'0 0.0
2015-Jul-03 02:14N 40°50' W 073°43'0 0.0
2015-Jul-03 01:29N 40°50' W 073°43'0 0.0
2015-Jul-03 00:33N 40°50' W 073°43'0 0.0
2015-Jul-02 23:33N 40°50' W 073°43'0 0.0
2015-Jul-02 22:31N 40°50' W 073°43'0 0.0
2015-Jul-02 19:18N 40°50' W 073°43'0 0.0
2015-Jul-02 16:29N 40°50' W 073°43'0 0.0
2015-Jul-02 15:21N 40°50' W 073°43'0 0.0
2015-Jul-01 06:13N 40°50' W 073°43'0 0.0
2015-Jul-01 05:05N 40°50' W 073°43'0 0.0
2015-Jul-01 04:23N 40°50' W 073°43'0 0.0
2015-Jul-01 03:30N 40°50' W 073°43'0 0.0
2015-Jul-01 02:28N 40°50' W 073°43'0 0.0
2015-Jul-01 01:31N 40°50' W 073°43'0 0.0
2015-Jul-01 00:29N 40°50' W 073°43'0 0.0
2015-Jun-30 23:33N 40°50' W 073°43'0 0.0
2015-Jun-30 21:04N 40°50' W 073°43'0 0.0
2015-Jun-30 19:32N 40°50' W 073°43'0 0.0
2015-Jun-30 18:31N 40°50' W 073°43'0 0.0
2015-Jun-30 17:33N 40°50' W 073°43'0 0.0
2015-Jun-30 14:26N 40°50' W 073°43'0 0.0
2015-Jun-30 11:31N 40°50' W 073°43'0 0.0
2015-Jun-28 17:18N 40°50' W 073°43'0 0.0
2015-Jun-28 01:22N 40°50' W 073°43'0 0.0
2015-Jun-27 14:15N 40°50' W 073°43'0 0.0
2015-Jun-27 13:33N 40°50' W 073°43'0 0.0
2015-Jun-27 12:28N 40°50' W 073°43'0 0.0
2015-Jun-27 11:34N 40°50' W 073°43'0 0.0
2015-Jun-27 10:33N 40°50' W 073°43'0 0.0
2015-Jun-27 09:33N 40°50' W 073°43'0 0.0
2015-Jun-27 08:33N 40°50' W 073°43'2 1.8
2015-Jun-27 07:33N 40°50' W 073°46'2 0.1
2015-Jun-26 11:07N 40°50' W 073°43'0 0.0
2015-Jun-26 10:31N 40°50' W 073°43'0 0.0
2015-Jun-26 09:29N 40°50' W 073°43'0 0.0
2015-Jun-26 08:33N 40°50' W 073°43'0 0.0
2015-Jun-25 09:30N 40°50' W 073°43'0 0.0
2015-Jun-25 00:27N 40°50' W 073°43'  

Dump ship's entire track history